sensor_id;sensor_type;location;lat;lon;timestamp;pressure;altitude;pressure_sealevel;temperature;humidity
69836;BME280;57132;51.972;4.450;2023-02-22T05:28:11;101185.91;;;19.23;57.03
69836;BME280;57132;51.972;4.450;2023-02-22T05:30:37;101183.44;;;19.12;56.81
69836;BME280;57132;51.972;4.450;2023-02-22T05:33:07;101181.03;;;19.27;54.27
69836;BME280;57132;51.972;4.450;2023-02-22T05:35:32;101177.72;;;19.33;53.48
69836;BME280;57132;51.972;4.450;2023-02-22T05:37:58;101173.28;;;19.32;53.34
69836;BME280;57132;51.972;4.450;2023-02-22T05:40:27;101169.13;;;19.37;52.93
69836;BME280;57132;51.972;4.450;2023-02-22T05:42:53;101171.72;;;19.47;52.58
69836;BME280;57132;51.972;4.450;2023-02-22T05:45:20;101165.63;;;19.45;52.71
69836;BME280;57132;51.972;4.450;2023-02-22T05:47:46;101164.41;;;19.22;54.28
69836;BME280;57132;51.972;4.450;2023-02-22T05:50:13;101159.25;;;19.28;53.51
69836;BME280;57132;51.972;4.450;2023-02-22T05:52:38;101147.88;;;19.51;52.93
69836;BME280;57132;51.972;4.450;2023-02-22T05:55:05;101135.16;;;19.69;52.33
69836;BME280;57132;51.972;4.450;2023-02-22T05:57:30;101130.78;;;19.68;52.28
69836;BME280;57132;51.972;4.450;2023-02-22T05:59:56;101124.13;;;19.62;52.41
69836;BME280;57132;51.972;4.450;2023-02-22T06:02:21;101126.19;;;19.69;52.34
69836;BME280;57132;51.972;4.450;2023-02-22T06:04:47;101131.41;;;19.62;52.63
69836;BME280;57132;51.972;4.450;2023-02-22T06:07:13;101122.19;;;19.55;52.35
69836;BME280;57132;51.972;4.450;2023-02-22T06:09:39;101117.25;;;19.50;52.32
69836;BME280;57132;51.972;4.450;2023-02-22T06:12:05;101112.00;;;19.49;52.36
69836;BME280;57132;51.972;4.450;2023-02-22T06:14:30;101105.84;;;19.38;52.52
69836;BME280;57132;51.972;4.450;2023-02-22T06:16:56;101109.59;;;19.46;52.55
69836;BME280;57132;51.972;4.450;2023-02-22T06:19:22;101118.88;;;19.43;52.57
69836;BME280;57132;51.972;4.450;2023-02-22T06:21:52;101123.81;;;19.22;52.99
69836;BME280;57132;51.972;4.450;2023-02-22T06:24:18;101111.97;;;18.97;54.46
69836;BME280;57132;51.972;4.450;2023-02-22T06:26:44;101116.72;;;18.67;55.10
69836;BME280;57132;51.972;4.450;2023-02-22T06:29:09;101128.97;;;18.71;54.58
69836;BME280;57132;51.972;4.450;2023-02-22T06:31:34;101133.81;;;18.50;53.89
69836;BME280;57132;51.972;4.450;2023-02-22T06:34:01;101130.06;;;18.78;54.47
69836;BME280;57132;51.972;4.450;2023-02-22T06:36:27;101137.78;;;18.73;56.73
69836;BME280;57132;51.972;4.450;2023-02-22T06:38:52;101133.97;;;18.66;56.13
69836;BME280;57132;51.972;4.450;2023-02-22T06:41:17;101118.50;;;18.58;56.41
69836;BME280;57132;51.972;4.450;2023-02-22T06:43:43;101103.97;;;18.59;56.07
69836;BME280;57132;51.972;4.450;2023-02-22T06:46:09;101105.47;;;18.54;56.20
69836;BME280;57132;51.972;4.450;2023-02-22T06:48:36;101116.66;;;18.59;56.11
69836;BME280;57132;51.972;4.450;2023-02-22T06:51:02;101130.63;;;18.54;55.55
69836;BME280;57132;51.972;4.450;2023-02-22T06:53:28;101121.81;;;18.52;55.82
69836;BME280;57132;51.972;4.450;2023-02-22T06:55:53;101122.75;;;18.43;55.77
69836;BME280;57132;51.972;4.450;2023-02-22T06:58:19;101122.91;;;18.41;56.14
69836;BME280;57132;51.972;4.450;2023-02-22T07:00:44;101135.72;;;18.39;56.60
69836;BME280;57132;51.972;4.450;2023-02-22T07:03:10;101138.03;;;18.34;55.62
69836;BME280;57132;51.972;4.450;2023-02-22T07:05:35;101140.03;;;18.32;56.00
69836;BME280;57132;51.972;4.450;2023-02-22T07:08:03;101129.84;;;18.26;56.08
69836;BME280;57132;51.972;4.450;2023-02-22T07:10:30;101129.84;;;18.26;55.83
69836;BME280;57132;51.972;4.450;2023-02-22T07:12:56;101139.63;;;18.27;55.76
69836;BME280;57132;51.972;4.450;2023-02-22T07:15:23;101141.88;;;18.32;55.34
69836;BME280;57132;51.972;4.450;2023-02-22T07:17:50;101139.34;;;18.30;55.14
69836;BME280;57132;51.972;4.450;2023-02-22T07:20:17;101148.13;;;18.32;55.29
69836;BME280;57132;51.972;4.450;2023-02-22T07:22:45;101146.53;;;18.39;57.38
69836;BME280;57132;51.972;4.450;2023-02-22T07:25:10;101142.13;;;18.38;58.32
69836;BME280;57132;51.972;4.450;2023-02-22T07:39:38;101155.34;;;10.29;68.01
69836;BME280;57132;51.972;4.450;2023-02-22T07:42:06;101156.41;;;8.50;79.35
69836;BME280;57132;51.972;4.450;2023-02-22T07:44:31;101155.84;;;7.47;86.28
69836;BME280;57132;51.972;4.450;2023-02-22T07:46:56;101155.09;;;6.58;94.37
69836;BME280;57132;51.972;4.450;2023-02-22T07:49:22;101144.31;;;5.87;100.00
69836;BME280;57132;51.972;4.450;2023-02-22T07:51:47;101155.31;;;5.59;100.00
69836;BME280;57132;51.972;4.450;2023-02-22T07:54:13;101144.94;;;5.34;100.00
69836;BME280;57132;51.972;4.450;2023-02-22T07:56:46;101146.69;;;5.15;100.00
69836;BME280;57132;51.972;4.450;2023-02-22T07:59:13;101138.38;;;5.02;100.00
69836;BME280;57132;51.972;4.450;2023-02-22T08:01:39;101137.28;;;4.87;100.00
69836;BME280;57132;51.972;4.450;2023-02-22T08:04:05;101132.44;;;4.77;100.00
69836;BME280;57132;51.972;4.450;2023-02-22T08:06:32;101128.94;;;4.76;100.00
69836;BME280;57132;51.972;4.450;2023-02-22T08:08:57;101127.41;;;4.71;100.00
69836;BME280;57132;51.972;4.450;2023-02-22T08:11:23;101128.31;;;4.69;100.00
69836;BME280;57132;51.972;4.450;2023-02-22T08:13:50;101122.84;;;4.74;100.00
69836;BME280;57132;51.972;4.450;2023-02-22T08:16:16;101115.22;;;4.66;100.00
69836;BME280;57132;51.972;4.450;2023-02-22T08:18:41;101105.50;;;4.67;100.00
69836;BME280;57132;51.972;4.450;2023-02-22T08:21:07;101111.72;;;4.66;100.00
69836;BME280;57132;51.972;4.450;2023-02-22T08:23:33;101112.53;;;4.68;100.00
69836;BME280;57132;51.972;4.450;2023-02-22T08:26:10;101110.56;;;4.73;100.00
69836;BME280;57132;51.972;4.450;2023-02-22T08:28:40;101100.59;;;4.80;100.00
69836;BME280;57132;51.972;4.450;2023-02-22T08:31:05;101113.81;;;4.80;100.00
69836;BME280;57132;51.972;4.450;2023-02-22T08:33:33;101099.38;;;4.87;100.00
69836;BME280;57132;51.972;4.450;2023-02-22T08:36:00;101104.06;;;5.01;100.00
69836;BME280;57132;51.972;4.450;2023-02-22T08:38:29;101101.50;;;5.20;100.00
69836;BME280;57132;51.972;4.450;2023-02-22T08:40:56;101084.75;;;5.19;100.00
69836;BME280;57132;51.972;4.450;2023-02-22T08:43:22;101079.47;;;5.38;100.00
69836;BME280;57132;51.972;4.450;2023-02-22T08:45:48;101084.38;;;5.47;100.00
69836;BME280;57132;51.972;4.450;2023-02-22T08:48:14;101087.59;;;5.73;100.00
69836;BME280;57132;51.972;4.450;2023-02-22T08:50:40;101085.75;;;5.75;100.00
69836;BME280;57132;51.972;4.450;2023-02-22T08:53:08;101083.38;;;5.68;100.00
69836;BME280;57132;51.972;4.450;2023-02-22T08:55:36;101082.53;;;5.68;100.00
69836;BME280;57132;51.972;4.450;2023-02-22T08:58:03;101076.22;;;5.71;100.00
69836;BME280;57132;51.972;4.450;2023-02-22T09:00:33;101073.72;;;5.67;100.00
69836;BME280;57132;51.972;4.450;2023-02-22T09:03:00;101060.47;;;5.67;100.00
69836;BME280;57132;51.972;4.450;2023-02-22T09:05:26;101057.25;;;5.80;100.00
69836;BME280;57132;51.972;4.450;2023-02-22T09:07:52;101064.03;;;5.85;100.00
69836;BME280;57132;51.972;4.450;2023-02-22T09:10:21;101077.44;;;6.01;100.00
69836;BME280;57132;51.972;4.450;2023-02-22T09:12:49;101072.06;;;6.22;100.00
69836;BME280;57132;51.972;4.450;2023-02-22T09:15:15;101079.69;;;6.28;100.00
69836;BME280;57132;51.972;4.450;2023-02-22T09:17:41;101080.88;;;6.39;100.00
69836;BME280;57132;51.972;4.450;2023-02-22T09:20:08;101081.13;;;6.35;100.00
69836;BME280;57132;51.972;4.450;2023-02-22T09:22:36;101088.00;;;6.20;100.00
69836;BME280;57132;51.972;4.450;2023-02-22T09:25:01;101080.91;;;6.21;100.00
69836;BME280;57132;51.972;4.450;2023-02-22T09:27:26;101102.97;;;6.21;100.00
69836;BME280;57132;51.972;4.450;2023-02-22T09:29:55;101102.00;;;6.05;100.00
69836;BME280;57132;51.972;4.450;2023-02-22T09:32:23;101102.50;;;6.13;100.00
69836;BME280;57132;51.972;4.450;2023-02-22T09:34:52;101103.75;;;6.06;100.00
69836;BME280;57132;51.972;4.450;2023-02-22T09:37:18;101112.00;;;6.17;100.00
69836;BME280;57132;51.972;4.450;2023-02-22T09:39:43;101124.75;;;6.28;100.00
69836;BME280;57132;51.972;4.450;2023-02-22T09:42:16;101126.47;;;6.29;100.00
69836;BME280;57132;51.972;4.450;2023-02-22T09:45:02;101123.28;;;6.22;100.00
69836;BME280;57132;51.972;4.450;2023-02-22T09:47:39;101114.25;;;6.26;100.00
69836;BME280;57132;51.972;4.450;2023-02-22T09:50:15;101109.16;;;6.22;100.00
69836;BME280;57132;51.972;4.450;2023-02-22T09:52:51;101091.66;;;6.18;100.00
69836;BME280;57132;51.972;4.450;2023-02-22T09:58:06;101068.38;;;6.24;100.00
69836;BME280;57132;51.972;4.450;2023-02-22T10:00:36;101084.50;;;6.20;100.00
69836;BME280;57132;51.972;4.450;2023-02-22T10:03:33;101091.63;;;6.36;100.00
69836;BME280;57132;51.972;4.450;2023-02-22T10:06:05;101105.53;;;6.42;100.00
69836;BME280;57132;51.972;4.450;2023-02-22T10:08:35;101100.28;;;6.40;100.00
69836;BME280;57132;51.972;4.450;2023-02-22T10:14:15;101106.56;;;6.56;100.00
69836;BME280;57132;51.972;4.450;2023-02-22T10:17:00;101114.34;;;6.59;100.00
69836;BME280;57132;51.972;4.450;2023-02-22T10:25:04;101114.22;;;6.80;100.00
69836;BME280;57132;51.972;4.450;2023-02-22T10:27:52;101114.81;;;6.85;100.00
69836;BME280;57132;51.972;4.450;2023-02-22T10:30:21;101112.66;;;6.93;100.00
69836;BME280;57132;51.972;4.450;2023-02-22T10:33:20;101107.03;;;6.99;100.00
69836;BME280;57132;51.972;4.450;2023-02-22T10:35:46;101105.13;;;7.19;100.00
69836;BME280;57132;51.972;4.450;2023-02-22T10:38:19;101099.13;;;7.15;100.00
69836;BME280;57132;51.972;4.450;2023-02-22T10:43:41;101090.09;;;7.52;100.00
69836;BME280;57132;51.972;4.450;2023-02-22T10:46:11;101093.69;;;7.83;100.00
69836;BME280;57132;51.972;4.450;2023-02-22T10:48:39;101078.56;;;8.31;100.00
69836;BME280;57132;51.972;4.450;2023-02-22T10:51:07;101074.44;;;8.87;100.00
69836;BME280;57132;51.972;4.450;2023-02-22T10:53:33;101073.09;;;8.94;100.00
69836;BME280;57132;51.972;4.450;2023-02-22T10:56:13;101072.06;;;8.97;100.00
69836;BME280;57132;51.972;4.450;2023-02-22T11:04:19;101071.22;;;8.36;100.00
69836;BME280;57132;51.972;4.450;2023-02-22T11:09:29;101068.56;;;8.36;100.00
69836;BME280;57132;51.972;4.450;2023-02-22T11:12:16;101057.91;;;8.52;100.00
69836;BME280;57132;51.972;4.450;2023-02-22T11:14:43;101053.56;;;8.65;100.00
69836;BME280;57132;51.972;4.450;2023-02-22T11:17:09;101057.09;;;8.66;100.00
69836;BME280;57132;51.972;4.450;2023-02-22T11:19:45;101053.47;;;8.67;100.00
69836;BME280;57132;51.972;4.450;2023-02-22T11:22:18;101050.56;;;8.71;100.00
69836;BME280;57132;51.972;4.450;2023-02-22T11:24:50;101056.38;;;8.48;100.00
69836;BME280;57132;51.972;4.450;2023-02-22T11:32:54;101042.41;;;8.58;100.00
69836;BME280;57132;51.972;4.450;2023-02-22T11:37:52;101044.69;;;8.50;100.00
69836;BME280;57132;51.972;4.450;2023-02-22T11:40:21;101046.34;;;8.37;100.00
69836;BME280;57132;51.972;4.450;2023-02-22T11:42:49;101042.56;;;8.41;100.00
69836;BME280;57132;51.972;4.450;2023-02-22T11:45:29;101038.28;;;8.38;100.00
69836;BME280;57132;51.972;4.450;2023-02-22T11:47:57;101030.69;;;8.47;100.00
69836;BME280;57132;51.972;4.450;2023-02-22T12:03:48;101025.00;;;8.83;100.00
69836;BME280;57132;51.972;4.450;2023-02-22T12:06:30;101013.41;;;8.84;100.00
69836;BME280;57132;51.972;4.450;2023-02-22T12:09:08;101011.78;;;8.81;100.00
69836;BME280;57132;51.972;4.450;2023-02-22T12:17:23;101017.19;;;8.80;100.00
69836;BME280;57132;51.972;4.450;2023-02-22T12:19:55;101011.31;;;8.89;100.00
69836;BME280;57132;51.972;4.450;2023-02-22T12:22:34;101018.72;;;8.84;100.00
69836;BME280;57132;51.972;4.450;2023-02-22T12:30:30;101019.19;;;8.91;100.00
69836;BME280;57132;51.972;4.450;2023-02-22T12:32:59;101020.59;;;8.82;100.00
69836;BME280;57132;51.972;4.450;2023-02-22T12:35:34;101022.31;;;8.69;100.00
69836;BME280;57132;51.972;4.450;2023-02-22T12:38:17;101015.06;;;8.71;100.00
69836;BME280;57132;51.972;4.450;2023-02-22T12:41:11;101017.22;;;8.50;100.00
69836;BME280;57132;51.972;4.450;2023-02-22T12:43:46;101012.09;;;8.31;100.00
69836;BME280;57132;51.972;4.450;2023-02-22T12:49:25;101019.03;;;8.49;100.00
69836;BME280;57132;51.972;4.450;2023-02-22T12:58:06;101024.94;;;8.54;100.00
69836;BME280;57132;51.972;4.450;2023-02-22T13:01:08;101024.47;;;8.62;100.00
69836;BME280;57132;51.972;4.450;2023-02-22T13:03:40;101019.81;;;8.66;100.00
69836;BME280;57132;51.972;4.450;2023-02-22T13:08:47;101024.00;;;8.70;100.00
69836;BME280;57132;51.972;4.450;2023-02-22T13:14:14;101019.41;;;9.02;100.00
69836;BME280;57132;51.972;4.450;2023-02-22T13:16:50;101014.66;;;8.93;100.00
69836;BME280;57132;51.972;4.450;2023-02-22T13:19:32;101021.59;;;8.95;100.00
69836;BME280;57132;51.972;4.450;2023-02-22T13:25:50;101014.81;;;9.18;100.00
69836;BME280;57132;51.972;4.450;2023-02-22T13:27:57;101015.59;;;9.20;100.00
69836;BME280;57132;51.972;4.450;2023-02-22T13:30:40;101016.63;;;9.18;100.00
69836;BME280;57132;51.972;4.450;2023-02-22T13:33:15;101014.94;;;9.17;100.00
69836;BME280;57132;51.972;4.450;2023-02-22T13:43:55;101012.94;;;9.06;100.00
69836;BME280;57132;51.972;4.450;2023-02-22T13:46:42;101015.41;;;9.09;100.00
69836;BME280;57132;51.972;4.450;2023-02-22T13:54:07;101016.19;;;9.11;100.00
69836;BME280;57132;51.972;4.450;2023-02-22T13:56:34;101023.78;;;9.17;100.00
69836;BME280;57132;51.972;4.450;2023-02-22T13:59:02;101018.19;;;9.07;100.00
69836;BME280;57132;51.972;4.450;2023-02-22T14:06:47;101016.84;;;9.15;100.00
69836;BME280;57132;51.972;4.450;2023-02-22T14:09:15;101009.13;;;9.24;100.00
69836;BME280;57132;51.972;4.450;2023-02-22T14:11:47;101013.50;;;9.25;100.00
69836;BME280;57132;51.972;4.450;2023-02-22T14:14:18;101016.56;;;9.05;100.00
69836;BME280;57132;51.972;4.450;2023-02-22T14:17:14;101012.19;;;9.04;100.00
69836;BME280;57132;51.972;4.450;2023-02-22T14:19:38;101023.13;;;8.99;100.00
69836;BME280;57132;51.972;4.450;2023-02-22T14:22:04;101021.22;;;9.01;100.00
69836;BME280;57132;51.972;4.450;2023-02-22T14:24:45;101019.41;;;9.02;100.00
69836;BME280;57132;51.972;4.450;2023-02-22T14:27:13;101032.03;;;8.98;100.00
69836;BME280;57132;51.972;4.450;2023-02-22T14:29:53;101028.16;;;9.04;100.00
69836;BME280;57132;51.972;4.450;2023-02-22T14:32:19;101035.59;;;8.99;100.00
69836;BME280;57132;51.972;4.450;2023-02-22T14:34:57;101033.56;;;9.02;100.00
69836;BME280;57132;51.972;4.450;2023-02-22T14:37:27;101036.03;;;8.91;100.00
69836;BME280;57132;51.972;4.450;2023-02-22T14:42:38;101042.22;;;8.92;100.00
69836;BME280;57132;51.972;4.450;2023-02-22T14:50:15;101055.88;;;8.85;100.00
69836;BME280;57132;51.972;4.450;2023-02-22T14:52:44;101056.06;;;8.82;100.00
69836;BME280;57132;51.972;4.450;2023-02-22T14:55:19;101059.78;;;8.80;100.00
69836;BME280;57132;51.972;4.450;2023-02-22T14:58:03;101065.91;;;8.66;100.00
69836;BME280;57132;51.972;4.450;2023-02-22T15:00:41;101073.78;;;8.53;100.00
69836;BME280;57132;51.972;4.450;2023-02-22T15:03:18;101067.03;;;8.48;100.00
69836;BME280;57132;51.972;4.450;2023-02-22T15:05:43;101075.91;;;8.47;100.00
69836;BME280;57132;51.972;4.450;2023-02-22T15:08:11;101074.13;;;8.47;100.00
69836;BME280;57132;51.972;4.450;2023-02-22T15:10:47;101086.84;;;8.42;100.00
69836;BME280;57132;51.972;4.450;2023-02-22T15:13:20;101076.38;;;8.39;100.00
69836;BME280;57132;51.972;4.450;2023-02-22T15:15:54;101068.56;;;8.36;100.00
69836;BME280;57132;51.972;4.450;2023-02-22T15:18:42;101071.22;;;8.36;100.00
69836;BME280;57132;51.972;4.450;2023-02-22T15:21:20;101080.94;;;8.37;100.00
69836;BME280;57132;51.972;4.450;2023-02-22T15:23:50;101071.94;;;8.40;100.00
69836;BME280;57132;51.972;4.450;2023-02-22T15:26:30;101070.03;;;8.42;100.00
69836;BME280;57132;51.972;4.450;2023-02-22T15:28:59;101072.94;;;8.37;100.00
69836;BME280;57132;51.972;4.450;2023-02-22T15:31:29;101074.78;;;8.35;100.00
69836;BME280;57132;51.972;4.450;2023-02-22T15:33:56;101076.53;;;8.36;100.00
69836;BME280;57132;51.972;4.450;2023-02-22T15:36:26;101075.06;;;8.30;100.00
69836;BME280;57132;51.972;4.450;2023-02-22T15:38:53;101085.22;;;8.24;100.00
69836;BME280;57132;51.972;4.450;2023-02-22T15:41:31;101084.78;;;8.16;100.00
69836;BME280;57132;51.972;4.450;2023-02-22T15:44:06;101088.75;;;8.08;100.00
69836;BME280;57132;51.972;4.450;2023-02-22T15:46:32;101085.31;;;8.06;100.00
69836;BME280;57132;51.972;4.450;2023-02-22T15:51:37;101099.28;;;7.94;100.00
69836;BME280;57132;51.972;4.450;2023-02-22T15:54:05;101103.16;;;7.88;100.00
69836;BME280;57132;51.972;4.450;2023-02-22T15:56:34;101093.53;;;7.86;100.00
69836;BME280;57132;51.972;4.450;2023-02-22T15:59:14;101088.38;;;7.83;100.00
69836;BME280;57132;51.972;4.450;2023-02-22T16:01:45;101085.88;;;7.80;100.00
69836;BME280;57132;51.972;4.450;2023-02-22T16:04:20;101096.09;;;7.72;100.00
69836;BME280;57132;51.972;4.450;2023-02-22T16:06:47;101089.06;;;7.71;100.00
69836;BME280;57132;51.972;4.450;2023-02-22T16:09:16;101091.66;;;7.72;100.00
69836;BME280;57132;51.972;4.450;2023-02-22T16:11:46;101090.78;;;7.72;100.00
69836;BME280;57132;51.972;4.450;2023-02-22T16:17:23;101088.19;;;7.54;100.00
69836;BME280;57132;51.972;4.450;2023-02-22T16:19:59;101096.56;;;7.47;100.00
69836;BME280;57132;51.972;4.450;2023-02-22T16:22:29;101086.09;;;7.44;100.00
69836;BME280;57132;51.972;4.450;2023-02-22T16:27:51;101084.75;;;7.36;100.00
69836;BME280;57132;51.972;4.450;2023-02-22T16:32:51;101102.44;;;7.36;100.00
69836;BME280;57132;51.972;4.450;2023-02-22T16:35:17;101107.75;;;7.36;100.00
69836;BME280;57132;51.972;4.450;2023-02-22T16:37:50;101105.09;;;7.36;100.00
69836;BME280;57132;51.972;4.450;2023-02-22T16:40:40;101101.53;;;7.37;100.00
69836;BME280;57132;51.972;4.450;2023-02-22T16:43:14;101107.53;;;7.41;100.00
69836;BME280;57132;51.972;4.450;2023-02-22T16:45:41;101105.09;;;7.36;100.00
69836;BME280;57132;51.972;4.450;2023-02-22T16:48:17;101109.72;;;7.32;100.00
69836;BME280;57132;51.972;4.450;2023-02-22T16:50:42;101115.97;;;7.31;100.00
69836;BME280;57132;51.972;4.450;2023-02-22T16:53:08;101109.81;;;7.31;100.00
69836;BME280;57132;51.972;4.450;2023-02-22T16:55:35;101115.44;;;7.25;100.00
69836;BME280;57132;51.972;4.450;2023-02-22T16:58:01;101111.00;;;7.25;100.00
69836;BME280;57132;51.972;4.450;2023-02-22T17:00:28;101115.75;;;7.19;100.00
69836;BME280;57132;51.972;4.450;2023-02-22T17:02:58;101123.81;;;7.17;100.00
69836;BME280;57132;51.972;4.450;2023-02-22T17:05:26;101117.88;;;7.12;100.00
69836;BME280;57132;51.972;4.450;2023-02-22T17:07:52;101124.03;;;7.12;100.00
69836;BME280;57132;51.972;4.450;2023-02-22T17:10:18;101124.22;;;7.09;100.00
69836;BME280;57132;51.972;4.450;2023-02-22T17:12:46;101122.56;;;7.07;100.00
69836;BME280;57132;51.972;4.450;2023-02-22T17:15:24;101116.56;;;7.03;100.00
69836;BME280;57132;51.972;4.450;2023-02-22T17:17:52;101127.31;;;7.00;100.00
69836;BME280;57132;51.972;4.450;2023-02-22T17:20:18;101129.13;;;7.00;100.00
69836;BME280;57132;51.972;4.450;2023-02-22T17:23:04;101129.06;;;7.01;100.00
69836;BME280;57132;51.972;4.450;2023-02-22T17:25:32;101127.25;;;7.02;100.00
69836;BME280;57132;51.972;4.450;2023-02-22T17:27:59;101117.50;;;7.02;100.00
69836;BME280;57132;51.972;4.450;2023-02-22T17:30:25;101121.81;;;7.05;100.00
69836;BME280;57132;51.972;4.450;2023-02-22T17:32:53;101125.31;;;7.05;100.00
69836;BME280;57132;51.972;4.450;2023-02-22T17:35:20;101127.16;;;7.03;100.00
69836;BME280;57132;51.972;4.450;2023-02-22T17:37:49;101140.28;;;7.06;100.00
69836;BME280;57132;51.972;4.450;2023-02-22T17:40:15;101134.97;;;7.06;100.00
69836;BME280;57132;51.972;4.450;2023-02-22T17:42:42;101139.28;;;7.09;100.00
69836;BME280;57132;51.972;4.450;2023-02-22T17:45:09;101138.41;;;7.08;100.00
69836;BME280;57132;51.972;4.450;2023-02-22T17:47:35;101143.72;;;7.08;100.00
69836;BME280;57132;51.972;4.450;2023-02-22T17:50:01;101144.59;;;7.09;100.00
69836;BME280;57132;51.972;4.450;2023-02-22T17:52:26;101157.78;;;7.10;100.00
69836;BME280;57132;51.972;4.450;2023-02-22T17:54:54;101150.75;;;7.09;100.00
69836;BME280;57132;51.972;4.450;2023-02-22T17:57:19;101157.91;;;7.07;100.00
69836;BME280;57132;51.972;4.450;2023-02-22T17:59:45;101159.63;;;7.08;100.00
69836;BME280;57132;51.972;4.450;2023-02-22T18:02:11;101154.31;;;7.08;100.00
69836;BME280;57132;51.972;4.450;2023-02-22T18:04:38;101153.47;;;7.08;100.00
69836;BME280;57132;51.972;4.450;2023-02-22T18:07:04;101157.91;;;7.07;100.00
69836;BME280;57132;51.972;4.450;2023-02-22T18:09:30;101162.28;;;7.08;100.00
69836;BME280;57132;51.972;4.450;2023-02-22T18:11:55;101162.22;;;7.10;100.00
69836;BME280;57132;51.972;4.450;2023-02-22T18:14:20;101162.28;;;7.08;100.00
69836;BME280;57132;51.972;4.450;2023-02-22T18:16:48;101159.63;;;7.08;100.00
69836;BME280;57132;51.972;4.450;2023-02-22T18:19:13;101167.53;;;7.10;100.00
69836;BME280;57132;51.972;4.450;2023-02-22T18:21:44;101168.38;;;7.10;100.00
69836;BME280;57132;51.972;4.450;2023-02-22T18:24:09;101164.94;;;7.08;100.00
69836;BME280;57132;51.972;4.450;2023-02-22T18:26:34;101167.69;;;7.07;100.00
69836;BME280;57132;51.972;4.450;2023-02-22T18:29:03;101170.44;;;7.05;100.00
69836;BME280;57132;51.972;4.450;2023-02-22T18:31:29;101166.84;;;7.06;100.00
69836;BME280;57132;51.972;4.450;2023-02-22T18:33:54;101178.22;;;7.08;100.00
69836;BME280;57132;51.972;4.450;2023-02-22T18:36:22;101182.75;;;7.06;100.00
69836;BME280;57132;51.972;4.450;2023-02-22T18:38:49;101177.44;;;7.06;100.00
69836;BME280;57132;51.972;4.450;2023-02-22T18:41:17;101174.69;;;7.08;100.00
69836;BME280;57132;51.972;4.450;2023-02-22T18:43:44;101180.81;;;7.10;100.00
69836;BME280;57132;51.972;4.450;2023-02-22T18:46:17;101185.25;;;7.09;100.00
69836;BME280;57132;51.972;4.450;2023-02-22T18:48:50;101179.16;;;7.07;100.00
69836;BME280;57132;51.972;4.450;2023-02-22T18:51:16;101181.03;;;7.05;100.00
69836;BME280;57132;51.972;4.450;2023-02-22T18:53:42;101175.78;;;7.04;100.00
69836;BME280;57132;51.972;4.450;2023-02-22T18:56:14;101175.03;;;7.02;100.00
69836;BME280;57132;51.972;4.450;2023-02-22T18:58:40;101178.59;;;7.01;100.00
69836;BME280;57132;51.972;4.450;2023-02-22T19:01:10;101176.97;;;6.98;100.00
69836;BME280;57132;51.972;4.450;2023-02-22T19:03:38;101175.19;;;6.99;100.00
69836;BME280;57132;51.972;4.450;2023-02-22T19:06:05;101180.63;;;6.96;100.00
69836;BME280;57132;51.972;4.450;2023-02-22T19:08:35;101174.56;;;6.94;100.00
69836;BME280;57132;51.972;4.450;2023-02-22T19:11:08;101172.91;;;6.91;100.00
69836;BME280;57132;51.972;4.450;2023-02-22T19:13:34;101172.91;;;6.91;100.00
69836;BME280;57132;51.972;4.450;2023-02-22T19:16:01;101175.66;;;6.89;100.00
69836;BME280;57132;51.972;4.450;2023-02-22T19:18:27;101174.84;;;6.87;100.00
69836;BME280;57132;51.972;4.450;2023-02-22T19:20:59;101176.81;;;6.84;100.00
69836;BME280;57132;51.972;4.450;2023-02-22T19:23:24;101177.75;;;6.83;100.00
69836;BME280;57132;51.972;4.450;2023-02-22T19:25:50;101180.41;;;6.83;100.00
69836;BME280;57132;51.972;4.450;2023-02-22T19:28:15;101178.59;;;6.83;100.00
69836;BME280;57132;51.972;4.450;2023-02-22T19:30:41;101186.56;;;6.83;100.00
69836;BME280;57132;51.972;4.450;2023-02-22T19:33:07;101183.13;;;6.81;100.00
69836;BME280;57132;51.972;4.450;2023-02-22T19:35:33;101179.59;;;6.81;100.00
69836;BME280;57132;51.972;4.450;2023-02-22T19:38:00;101186.78;;;6.79;100.00
69836;BME280;57132;51.972;4.450;2023-02-22T19:40:26;101178.84;;;6.79;100.00
69836;BME280;57132;51.972;4.450;2023-02-22T19:42:54;101185.09;;;6.78;100.00
69836;BME280;57132;51.972;4.450;2023-02-22T19:45:22;101184.22;;;6.77;100.00
69836;BME280;57132;51.972;4.450;2023-02-22T19:47:52;101185.13;;;6.76;100.00
69836;BME280;57132;51.972;4.450;2023-02-22T19:50:18;101187.03;;;6.74;100.00
69836;BME280;57132;51.972;4.450;2023-02-22T19:52:46;101195.03;;;6.73;100.00
69836;BME280;57132;51.972;4.450;2023-02-22T19:55:11;101195.03;;;6.73;100.00
69836;BME280;57132;51.972;4.450;2023-02-22T19:57:44;101194.28;;;6.71;100.00
69836;BME280;57132;51.972;4.450;2023-02-22T20:00:15;101192.47;;;6.71;100.00
69836;BME280;57132;51.972;4.450;2023-02-22T20:02:48;101199.63;;;6.69;100.00
69836;BME280;57132;51.972;4.450;2023-02-22T20:05:14;101200.56;;;6.68;100.00
69836;BME280;57132;51.972;4.450;2023-02-22T20:07:41;101200.56;;;6.68;100.00
69836;BME280;57132;51.972;4.450;2023-02-22T20:10:08;101204.16;;;6.67;100.00
69836;BME280;57132;51.972;4.450;2023-02-22T20:12:33;101206.81;;;6.67;100.00
69836;BME280;57132;51.972;4.450;2023-02-22T20:14:59;101206.09;;;6.63;100.00
69836;BME280;57132;51.972;4.450;2023-02-22T20:17:25;101202.59;;;6.63;100.00
69836;BME280;57132;51.972;4.450;2023-02-22T20:19:51;101212.34;;;6.62;100.00
69836;BME280;57132;51.972;4.450;2023-02-22T20:22:18;101209.75;;;6.61;100.00
69836;BME280;57132;51.972;4.450;2023-02-22T20:24:44;101210.69;;;6.60;100.00
69836;BME280;57132;51.972;4.450;2023-02-22T20:27:11;101214.19;;;6.60;100.00
69836;BME280;57132;51.972;4.450;2023-02-22T20:29:38;101213.34;;;6.60;100.00
69836;BME280;57132;51.972;4.450;2023-02-22T20:32:04;101212.41;;;6.61;100.00